Time;durP1;ratioP1;P1;durP2;ratioP2;P2;SDS_P1;SDS_P2;PMS_P1;PMS_P2;Temp;Humidity;BMP_temperature;BMP_pressure;BME280_temperature;BME280_humidity;BME280_pressure;Samples;Min_cycle;Max_cycle;Signal;HPM_P1;HPM_P2
2023/03/06 00:00:27;;;;;;;;;;;22.40;30.90;;;;;;5093196;28;20015;-70
2023/03/06 00:02:55;;;;;;;;;;;22.40;30.80;;;;;;5092111;28;19920;-70
2023/03/06 00:05:21;;;;;;;;;;;22.40;30.90;;;;;;5091789;28;19920;-70
2023/03/06 00:07:47;;;;;;;;;;;22.40;31.00;;;;;;5093444;28;19920;-70
2023/03/06 00:10:13;;;;;;;;;;;22.40;31.00;;;;;;5091712;28;19920;-70
2023/03/06 00:12:39;;;;;;;;;;;22.40;30.90;;;;;;5091936;28;20077;-70
2023/03/06 00:15:09;;;;;;;;;;;22.40;31.70;;;;;;5092992;28;20398;-70
2023/03/06 00:17:34;;;;;;;;;;;22.50;31.10;;;;;;5092845;28;19920;-70
2023/03/06 00:20:00;;;;;;;;;;;22.30;31.10;;;;;;5091494;28;19924;-70
2023/03/06 00:22:25;;;;;;;;;;;22.30;31.00;;;;;;5091539;28;19945;-73
2023/03/06 00:24:52;;;;;;;;;;;22.30;31.10;;;;;;5091454;28;19965;-70
2023/03/06 00:27:18;;;;;;;;;;;22.40;31.10;;;;;;5091545;28;19970;-70
2023/03/06 00:29:43;;;;;;;;;;;22.30;31.10;;;;;;5091843;28;19979;-70
2023/03/06 00:32:09;;;;;;;;;;;22.30;31.10;;;;;;5091319;28;19954;-70
2023/03/06 00:34:34;;;;;;;;;;;22.30;31.10;;;;;;5091322;28;19927;-70
2023/03/06 00:37:00;;;;;;;;;;;22.30;31.10;;;;;;5092515;28;19924;-70
2023/03/06 00:39:25;;;;;;;;;;;22.40;31.10;;;;;;5091370;28;19971;-70
2023/03/06 00:41:51;;;;;;;;;;;22.40;31.90;;;;;;5091227;28;19975;-71
2023/03/06 00:44:16;;;;;;;;;;;22.30;31.10;;;;;;5091494;28;19920;-70
2023/03/06 00:46:42;;;;;;;;;;;22.30;31.10;;;;;;5092518;28;20351;-70
2023/03/06 00:49:08;;;;;;;;;;;22.30;31.10;;;;;;5091349;28;19963;-70
2023/03/06 00:51:33;;;;;;;;;;;22.30;31.10;;;;;;5090914;28;20002;-70
2023/03/06 00:53:59;;;;;;;;;;;22.20;31.20;;;;;;5090947;28;20018;-70
2023/03/06 00:56:24;;;;;;;;;;;22.20;31.30;;;;;;5091271;28;20356;-72
2023/03/06 00:58:50;;;;;;;;;;;22.10;31.30;;;;;;5092468;28;19943;-69
2023/03/06 01:01:15;;;;;;;;;;;22.00;31.30;;;;;;5091089;28;19920;-70
2023/03/06 01:03:41;;;;;;;;;;;22.10;31.40;;;;;;5091015;28;19926;-70
2023/03/06 01:06:09;;;;;;;;;;;22.10;31.50;;;;;;5092277;28;19920;-70
2023/03/06 01:08:35;;;;;;;;;;;22.10;31.50;;;;;;5091285;28;19920;-70
2023/03/06 01:11:00;;;;;;;;;;;22.10;31.40;;;;;;5091307;28;20343;-70
2023/03/06 01:13:26;;;;;;;;;;;22.10;31.40;;;;;;5090959;28;19924;-70
2023/03/06 01:15:51;;;;;;;;;;;22.10;31.40;;;;;;5090967;28;20011;-69
2023/03/06 01:18:17;;;;;;;;;;;22.10;31.40;;;;;;5090990;28;20011;-70
2023/03/06 01:20:42;;;;;;;;;;;22.20;31.40;;;;;;5091283;28;20050;-70
2023/03/06 01:23:08;;;;;;;;;;;22.20;31.40;;;;;;5090887;28;19924;-70
2023/03/06 01:25:33;;;;;;;;;;;22.20;31.30;;;;;;5091134;28;19955;-69
2023/03/06 01:27:59;;;;;;;;;;;22.30;31.30;;;;;;5091225;28;19928;-69
2023/03/06 01:30:24;;;;;;;;;;;22.30;31.40;;;;;;5091066;28;19943;-71
2023/03/06 01:32:50;;;;;;;;;;;22.40;31.30;;;;;;5090936;28;20375;-70
2023/03/06 01:35:15;;;;;;;;;;;22.40;31.20;;;;;;5090721;28;19920;-70
2023/03/06 01:37:41;;;;;;;;;;;22.40;31.30;;;;;;5090665;28;19928;-70
2023/03/06 01:40:08;;;;;;;;;;;22.40;31.10;;;;;;5094917;28;19923;-70
2023/03/06 01:42:33;;;;;;;;;;;22.40;31.20;;;;;;5095789;28;19926;-70
2023/03/06 01:47:40;;;;;;;;;;;22.40;31.30;;;;;;5089911;28;19919;-69
2023/03/06 01:50:07;;;;;;;;;;;22.30;31.20;;;;;;5088564;28;20350;-69
2023/03/06 01:52:52;;;;;;;;;;;22.30;31.20;;;;;;5088361;28;19935;-70
2023/03/06 01:55:20;;;;;;;;;;;22.30;31.20;;;;;;5088740;28;20275;-69
2023/03/06 01:57:47;;;;;;;;;;;22.30;31.30;;;;;;5105782;28;19927;-69
2023/03/06 02:00:14;;;;;;;;;;;22.40;31.40;;;;;;5088330;28;19927;-70
2023/03/06 02:02:42;;;;;;;;;;;22.20;31.30;;;;;;5088675;28;19927;-70
2023/03/06 02:05:08;;;;;;;;;;;22.20;31.30;;;;;;5088544;28;19971;-70
2023/03/06 02:07:34;;;;;;;;;;;22.20;31.40;;;;;;5088556;28;19971;-70
2023/03/06 02:10:03;;;;;;;;;;;22.20;31.40;;;;;;5088195;28;19967;-70
2023/03/06 02:12:28;;;;;;;;;;;22.20;31.40;;;;;;5089535;28;19920;-69
2023/03/06 02:14:54;;;;;;;;;;;22.20;31.40;;;;;;5088469;28;20020;-70
2023/03/06 02:17:21;;;;;;;;;;;22.20;31.50;;;;;;5089759;28;20352;-70
2023/03/06 02:22:46;;;;;;;;;;;22.20;31.40;;;;;;5110536;27;19919;-70
2023/03/06 02:25:32;;;;;;;;;;;22.20;31.40;;;;;;5108998;28;19927;-70
2023/03/06 02:27:58;;;;;;;;;;;22.20;31.40;;;;;;5109021;28;19927;-69
2023/03/06 02:30:25;;;;;;;;;;;22.20;31.40;;;;;;5110143;28;20018;-70
2023/03/06 02:32:50;;;;;;;;;;;22.20;31.50;;;;;;5143413;27;19951;-70
2023/03/06 02:35:17;;;;;;;;;;;22.20;31.40;;;;;;5108781;28;19963;-70
2023/03/06 02:37:43;;;;;;;;;;;22.20;31.40;;;;;;5108985;28;19926;-70
2023/03/06 02:40:11;;;;;;;;;;;22.20;31.40;;;;;;5108664;28;20015;-72
2023/03/06 02:42:36;;;;;;;;;;;22.20;31.40;;;;;;5108892;28;19924;-70
2023/03/06 02:45:04;;;;;;;;;;;22.20;31.40;;;;;;5107925;28;20284;-70
2023/03/06 02:47:29;;;;;;;;;;;22.30;31.50;;;;;;5108845;28;19920;-70
2023/03/06 02:49:58;;;;;;;;;;;22.30;31.50;;;;;;5108827;28;19926;-70
2023/03/06 02:52:23;;;;;;;;;;;22.10;31.30;;;;;;5108491;28;19926;-70
2023/03/06 02:54:49;;;;;;;;;;;22.30;31.30;;;;;;5109587;28;19924;-70
2023/03/06 02:57:14;;;;;;;;;;;22.30;31.30;;;;;;5108229;28;19924;-70
2023/03/06 02:59:40;;;;;;;;;;;22.30;31.40;;;;;;5109593;28;19920;-70
2023/03/06 03:02:06;;;;;;;;;;;22.30;31.40;;;;;;5109421;28;20341;-70
2023/03/06 03:04:31;;;;;;;;;;;22.30;31.40;;;;;;5108549;28;20253;-70
2023/03/06 03:06:57;;;;;;;;;;;22.30;31.40;;;;;;5108462;28;19943;-70
2023/03/06 03:09:22;;;;;;;;;;;22.30;31.40;;;;;;5108647;28;20348;-71
2023/03/06 03:11:48;;;;;;;;;;;22.30;31.40;;;;;;5108130;28;20564;-70
2023/03/06 03:14:15;;;;;;;;;;;22.40;31.40;;;;;;5109439;28;19920;-70
2023/03/06 03:16:40;;;;;;;;;;;22.40;31.30;;;;;;5108323;28;20383;-71
2023/03/06 03:19:06;;;;;;;;;;;22.40;31.30;;;;;;5109357;28;19926;-71
2023/03/06 03:21:33;;;;;;;;;;;22.40;32.00;;;;;;5107780;28;20284;-71
2023/03/06 03:23:58;;;;;;;;;;;22.70;31.50;;;;;;5107766;28;19920;-71
2023/03/06 03:26:24;;;;;;;;;;;22.50;31.20;;;;;;5109030;28;19982;-71
2023/03/06 03:28:49;;;;;;;;;;;22.50;31.20;;;;;;5142222;27;19924;-71
2023/03/06 03:31:15;;;;;;;;;;;22.50;31.20;;;;;;5141909;27;19932;-71
2023/03/06 03:33:40;;;;;;;;;;;22.60;31.10;;;;;;5130210;27;19921;-71
2023/03/06 03:36:06;;;;;;;;;;;22.60;31.10;;;;;;5094157;28;19920;-71
2023/03/06 03:38:32;;;;;;;;;;;22.60;31.10;;;;;;5093872;28;19920;-71
2023/03/06 03:40:59;;;;;;;;;;;22.60;31.00;;;;;;5094038;28;20150;-71
2023/03/06 03:43:24;;;;;;;;;;;22.60;31.00;;;;;;5095116;28;19924;-70
2023/03/06 03:45:51;;;;;;;;;;;22.60;31.00;;;;;;5093811;28;19927;-70
2023/03/06 03:48:17;;;;;;;;;;;22.60;31.00;;;;;;5094170;28;19928;-70
2023/03/06 03:50:45;;;;;;;;;;;22.60;31.10;;;;;;5128204;27;20334;-71
2023/03/06 03:53:11;;;;;;;;;;;22.60;31.10;;;;;;5094007;28;20388;-71
2023/03/06 03:55:36;;;;;;;;;;;22.50;31.00;;;;;;5127923;27;19927;-69
2023/03/06 03:58:02;;;;;;;;;;;22.50;31.10;;;;;;5093782;28;19927;-70
2023/03/06 04:00:27;;;;;;;;;;;22.50;31.10;;;;;;5093637;28;19924;-71
2023/03/06 04:02:53;;;;;;;;;;;22.50;31.20;;;;;;5093804;28;20371;-70
2023/03/06 04:05:18;;;;;;;;;;;22.50;31.20;;;;;;5093398;28;19920;-70
2023/03/06 04:07:44;;;;;;;;;;;22.40;31.10;;;;;;5093673;28;19924;-70
2023/03/06 04:10:10;;;;;;;;;;;22.40;31.20;;;;;;5093527;28;20294;-71
2023/03/06 04:12:36;;;;;;;;;;;22.30;31.20;;;;;;5094758;28;19920;-70
2023/03/06 04:15:02;;;;;;;;;;;22.30;31.20;;;;;;5093560;28;20382;-70
2023/03/06 04:17:28;;;;;;;;;;;22.30;31.70;;;;;;5093306;28;19977;-71
2023/03/06 04:19:54;;;;;;;;;;;22.30;31.30;;;;;;5093169;28;19924;-71
2023/03/06 04:22:19;;;;;;;;;;;22.30;31.30;;;;;;5092897;28;19924;-70
2023/03/06 04:24:47;;;;;;;;;;;22.30;31.30;;;;;;5093282;28;19920;-70
2023/03/06 04:27:13;;;;;;;;;;;22.30;31.40;;;;;;5093077;28;20006;-71
2023/03/06 04:29:38;;;;;;;;;;;22.20;31.30;;;;;;5092897;28;20010;-70
2023/03/06 04:32:04;;;;;;;;;;;22.20;31.40;;;;;;5092894;28;19924;-70
2023/03/06 04:34:29;;;;;;;;;;;22.20;31.40;;;;;;5092926;28;20015;-70
2023/03/06 04:36:55;;;;;;;;;;;22.30;31.50;;;;;;5092774;28;19947;-70
2023/03/06 04:39:24;;;;;;;;;;;22.20;31.40;;;;;;5093291;28;19927;-71
2023/03/06 04:41:49;;;;;;;;;;;22.00;31.20;;;;;;5092636;28;19924;-70
2023/03/06 04:44:15;;;;;;;;;;;22.20;31.40;;;;;;5092992;28;19927;-70
2023/03/06 04:46:40;;;;;;;;;;;22.20;31.40;;;;;;5092877;28;19932;-70
2023/03/06 04:49:06;;;;;;;;;;;22.20;31.50;;;;;;5093814;28;20367;-70
2023/03/06 04:51:31;;;;;;;;;;;22.20;31.40;;;;;;5126632;27;19920;-70
2023/03/06 04:53:57;;;;;;;;;;;22.20;31.40;;;;;;5092605;28;19965;-70
2023/03/06 04:56:25;;;;;;;;;;;22.20;31.40;;;;;;5092641;28;19923;-70
2023/03/06 04:58:51;;;;;;;;;;;22.50;31.50;;;;;;5093707;28;19920;-70
2023/03/06 05:01:17;;;;;;;;;;;22.30;31.40;;;;;;5126433;27;20425;-70
2023/03/06 05:03:42;;;;;;;;;;;22.20;31.30;;;;;;5092655;28;19920;-70
2023/03/06 05:06:08;;;;;;;;;;;22.20;31.40;;;;;;5126675;27;20318;-71
2023/03/06 05:08:34;;;;;;;;;;;22.30;31.40;;;;;;5126873;27;20390;-70
2023/03/06 05:11:00;;;;;;;;;;;22.20;31.30;;;;;;5093531;28;20019;-70
2023/03/06 05:13:26;;;;;;;;;;;22.30;31.40;;;;;;5093464;28;20264;-70
2023/03/06 05:15:52;;;;;;;;;;;22.30;31.30;;;;;;5093512;28;19920;-70
2023/03/06 05:18:18;;;;;;;;;;;22.30;31.30;;;;;;5091923;28;19920;-70
2023/03/06 05:20:43;;;;;;;;;;;22.30;31.40;;;;;;5096980;28;19923;-71
2023/03/06 05:23:09;;;;;;;;;;;22.30;31.30;;;;;;5095342;28;19923;-70
2023/03/06 05:25:36;;;;;;;;;;;22.20;31.30;;;;;;5095614;28;19993;-70
2023/03/06 05:28:02;;;;;;;;;;;22.30;31.40;;;;;;5095522;28;19927;-70
2023/03/06 05:30:27;;;;;;;;;;;22.30;31.50;;;;;;5129654;27;20392;-71
2023/03/06 05:32:53;;;;;;;;;;;22.30;31.40;;;;;;5113326;28;19919;-70
2023/03/06 05:35:19;;;;;;;;;;;22.20;31.30;;;;;;5113596;28;20494;-70
2023/03/06 05:37:46;;;;;;;;;;;22.20;31.30;;;;;;5095364;28;19919;-69
2023/03/06 05:40:12;;;;;;;;;;;22.20;31.40;;;;;;5113547;28;20049;-70
2023/03/06 05:42:37;;;;;;;;;;;22.20;31.40;;;;;;5094852;28;20426;-70
2023/03/06 05:45:03;;;;;;;;;;;22.20;31.40;;;;;;5113341;28;20006;-70
2023/03/06 05:47:29;;;;;;;;;;;22.20;31.40;;;;;;5128978;27;19920;-71
2023/03/06 05:49:54;;;;;;;;;;;22.20;31.40;;;;;;5113076;28;19924;-70
2023/03/06 05:52:20;;;;;;;;;;;22.20;31.40;;;;;;5094833;28;20560;-71
2023/03/06 05:54:48;;;;;;;;;;;22.20;31.30;;;;;;5094752;28;19927;-70
2023/03/06 05:57:19;;;;;;;;;;;22.20;31.30;;;;;;5112939;28;19920;-70
2023/03/06 05:59:44;;;;;;;;;;;22.20;31.40;;;;;;5112958;28;20398;-69
2023/03/06 06:02:10;;;;;;;;;;;22.20;31.30;;;;;;5094677;28;19920;-70
2023/03/06 06:04:35;;;;;;;;;;;22.20;31.40;;;;;;5112836;28;19927;-70
2023/03/06 06:07:01;;;;;;;;;;;22.20;31.30;;;;;;5094705;28;20393;-70
2023/03/06 06:09:27;;;;;;;;;;;22.20;31.30;;;;;;5094656;28;19924;-70
2023/03/06 06:11:53;;;;;;;;;;;22.20;31.30;;;;;;5094552;28;19996;-70
2023/03/06 06:14:19;;;;;;;;;;;22.20;31.30;;;;;;5112764;28;19926;-70
2023/03/06 06:16:48;;;;;;;;;;;22.10;31.20;;;;;;5094531;28;20374;-70
2023/03/06 06:19:17;;;;;;;;;;;22.10;31.20;;;;;;5094715;28;19927;-71
2023/03/06 06:21:45;;;;;;;;;;;22.10;31.40;;;;;;5094183;28;19924;-71
2023/03/06 06:24:11;;;;;;;;;;;22.10;31.30;;;;;;5094705;28;19920;-70
2023/03/06 06:26:36;;;;;;;;;;;22.10;31.30;;;;;;5112847;28;20393;-70
2023/03/06 06:29:03;;;;;;;;;;;22.10;31.30;;;;;;5112753;28;20441;-70
2023/03/06 06:31:29;;;;;;;;;;;22.10;31.30;;;;;;5094750;28;20385;-71
2023/03/06 06:33:54;;;;;;;;;;;22.10;31.20;;;;;;5112488;28;19928;-70
2023/03/06 06:36:20;;;;;;;;;;;22.20;31.30;;;;;;5112865;28;20335;-70
2023/03/06 06:38:46;;;;;;;;;;;22.20;31.30;;;;;;5093737;28;20417;-70
2023/03/06 06:41:11;;;;;;;;;;;22.20;31.30;;;;;;5119890;28;19924;-71
2023/03/06 06:43:37;;;;;;;;;;;22.20;31.60;;;;;;5092095;28;19976;-70
2023/03/06 06:46:03;;;;;;;;;;;22.10;32.20;;;;;;5110915;28;19920;-70
2023/03/06 06:48:28;;;;;;;;;;;22.10;32.40;;;;;;5093356;28;19923;-72
2023/03/06 06:50:55;;;;;;;;;;;21.90;32.60;;;;;;5117008;28;19923;-71
2023/03/06 06:53:20;;;;;;;;;;;21.90;33.30;;;;;;5093599;28;20010;-72
2023/03/06 06:55:46;;;;;;;;;;;21.80;33.70;;;;;;5109027;28;20018;-71
2023/03/06 06:58:11;;;;;;;;;;;21.80;33.80;;;;;;5089672;28;19927;-70
2023/03/06 07:00:37;;;;;;;;;;;21.90;34.20;;;;;;5088356;28;19926;-72
2023/03/06 07:03:02;;;;;;;;;;;22.00;34.00;;;;;;5089064;28;19920;-70
2023/03/06 07:05:29;;;;;;;;;;;22.10;33.80;;;;;;5089145;28;19928;-70
2023/03/06 07:07:54;;;;;;;;;;;22.40;33.70;;;;;;5092326;28;20030;-73
2023/03/06 07:10:20;;;;;;;;;;;22.50;33.60;;;;;;5094577;28;20470;-71
2023/03/06 07:12:45;;;;;;;;;;;22.70;33.50;;;;;;5094321;28;20268;-72
2023/03/06 07:15:13;;;;;;;;;;;22.80;33.30;;;;;;5093431;28;19920;-71
2023/03/06 07:17:38;;;;;;;;;;;22.90;33.00;;;;;;5114903;27;19924;-71
2023/03/06 07:20:05;;;;;;;;;;;23.10;32.70;;;;;;5091586;28;19923;-74
2023/03/06 07:22:31;;;;;;;;;;;23.30;32.50;;;;;;5094340;28;19923;-76
2023/03/06 07:24:57;;;;;;;;;;;23.40;32.40;;;;;;5094991;28;19920;-78
2023/03/06 07:27:24;;;;;;;;;;;23.40;32.20;;;;;;5095052;28;19927;-70
2023/03/06 07:29:50;;;;;;;;;;;23.40;32.00;;;;;;5081835;28;20003;-71
2023/03/06 07:32:16;;;;;;;;;;;23.20;31.70;;;;;;5090648;28;20320;-71
2023/03/06 07:34:44;;;;;;;;;;;23.00;31.60;;;;;;5059907;28;19924;-70
2023/03/06 07:37:09;;;;;;;;;;;22.80;32.00;;;;;;5072701;28;20534;-70
2023/03/06 07:39:35;;;;;;;;;;;22.40;32.10;;;;;;5090062;28;19928;-70
2023/03/06 07:42:01;;;;;;;;;;;22.10;32.30;;;;;;5089076;28;20430;-72
2023/03/06 07:44:26;;;;;;;;;;;21.80;32.90;;;;;;5073898;28;19977;-74
2023/03/06 07:46:52;;;;;;;;;;;21.80;33.30;;;;;;5077240;28;20284;-71
2023/03/06 07:49:17;;;;;;;;;;;21.80;33.40;;;;;;5076569;28;19975;-71
2023/03/06 07:51:43;;;;;;;;;;;21.80;33.40;;;;;;5079978;28;19990;-73
2023/03/06 07:54:09;;;;;;;;;;;21.90;33.70;;;;;;5080708;28;19921;-70
2023/03/06 07:56:35;;;;;;;;;;;22.10;33.70;;;;;;5076222;28;19931;-74
2023/03/06 07:59:01;;;;;;;;;;;22.40;33.40;;;;;;5106664;27;20529;-68
2023/03/06 08:01:26;;;;;;;;;;;22.60;33.20;;;;;;5074319;28;20274;-74
2023/03/06 08:03:52;;;;;;;;;;;22.90;33.00;;;;;;5072540;28;19975;-76
2023/03/06 08:06:22;;;;;;;;;;;23.10;32.80;;;;;;5073083;28;19928;-82
2023/03/06 08:08:48;;;;;;;;;;;23.20;32.50;;;;;;5070843;28;20046;-72
2023/03/06 08:11:15;;;;;;;;;;;23.30;32.30;;;;;;5070236;28;19947;-80
2023/03/06 08:13:41;;;;;;;;;;;23.40;32.20;;;;;;5109985;27;19920;-80
2023/03/06 08:16:07;;;;;;;;;;;23.40;32.20;;;;;;5107038;27;19924;-73
2023/03/06 08:18:33;;;;;;;;;;;23.30;32.30;;;;;;5074860;28;19928;-71
2023/03/06 08:21:03;;;;;;;;;;;23.20;32.20;;;;;;5073225;28;19977;-77
2023/03/06 08:23:28;;;;;;;;;;;23.10;32.40;;;;;;5076662;28;19967;-73
2023/03/06 08:25:55;;;;;;;;;;;22.90;32.60;;;;;;5074188;28;20443;-78
2023/03/06 08:28:21;;;;;;;;;;;22.80;33.00;;;;;;5102746;27;19950;-77
2023/03/06 08:30:46;;;;;;;;;;;22.60;33.10;;;;;;5069988;28;19924;-73
2023/03/06 08:33:12;;;;;;;;;;;22.40;33.40;;;;;;5068965;28;20310;-79
2023/03/06 08:35:37;;;;;;;;;;;22.20;33.60;;;;;;5089625;28;20341;-78
2023/03/06 08:38:03;;;;;;;;;;;22.10;33.80;;;;;;5071935;28;20371;-76
2023/03/06 08:40:29;;;;;;;;;;;22.00;33.70;;;;;;5091165;28;19923;-70
2023/03/06 08:42:54;;;;;;;;;;;22.10;33.90;;;;;;5074566;28;19928;-79
2023/03/06 08:45:20;;;;;;;;;;;22.10;34.10;;;;;;5089663;28;19920;-76
2023/03/06 08:47:45;;;;;;;;;;;22.10;34.00;;;;;;5074204;28;19926;-74
2023/03/06 08:50:11;;;;;;;;;;;22.10;34.00;;;;;;5091498;28;19920;-71
2023/03/06 08:52:37;;;;;;;;;;;22.10;34.00;;;;;;5093004;28;20011;-71
2023/03/06 08:55:02;;;;;;;;;;;21.90;34.10;;;;;;5069548;28;19928;-68
2023/03/06 08:57:29;;;;;;;;;;;22.10;34.40;;;;;;5106837;27;20283;-74
2023/03/06 08:59:54;;;;;;;;;;;22.00;34.50;;;;;;5091446;28;20437;-71
2023/03/06 09:02:20;;;;;;;;;;;22.00;34.70;;;;;;5091706;28;19928;-69
2023/03/06 09:04:45;;;;;;;;;;;22.00;34.80;;;;;;5074713;28;20028;-71
2023/03/06 09:07:11;;;;;;;;;;;22.10;34.70;;;;;;5074267;28;20352;-77
2023/03/06 09:09:36;;;;;;;;;;;22.00;34.60;;;;;;5074668;28;19927;-76
2023/03/06 09:12:02;;;;;;;;;;;22.00;35.00;;;;;;5070460;28;19966;-74
2023/03/06 09:14:28;;;;;;;;;;;21.90;35.20;;;;;;5072328;28;19970;-74
2023/03/06 09:16:53;;;;;;;;;;;22.00;35.50;;;;;;5078360;28;19982;-73
2023/03/06 09:19:19;;;;;;;;;;;21.90;35.60;;;;;;5079259;28;19924;-73
2023/03/06 09:21:44;;;;;;;;;;;21.90;35.70;;;;;;5069579;28;20217;-73
2023/03/06 09:24:10;;;;;;;;;;;22.00;35.70;;;;;;5100853;27;19987;-72
2023/03/06 09:26:35;;;;;;;;;;;22.00;35.50;;;;;;5107231;27;20019;-73
2023/03/06 09:29:01;;;;;;;;;;;22.00;35.50;;;;;;5070110;28;19970;-70
2023/03/06 09:31:30;;;;;;;;;;;22.10;35.30;;;;;;5074891;28;20356;-71
2023/03/06 09:33:56;;;;;;;;;;;22.10;35.60;;;;;;5074999;28;19977;-78
2023/03/06 09:36:22;;;;;;;;;;;22.20;35.30;;;;;;5103110;27;19928;-71
2023/03/06 09:38:48;;;;;;;;;;;22.10;35.30;;;;;;5079061;28;20458;-70
2023/03/06 09:41:21;;;;;;;;;;;22.10;35.20;;;;;;5068555;28;20017;-70
2023/03/06 09:43:48;;;;;;;;;;;22.10;35.90;;;;;;5071263;28;20903;-69
2023/03/06 09:46:34;;;;;;;;;;;22.10;35.10;;;;;;5071434;28;19931;-69
2023/03/06 09:49:20;;;;;;;;;;;22.10;35.10;;;;;;5069289;28;20153;-69
2023/03/06 09:51:50;;;;;;;;;;;22.10;35.00;;;;;;5100900;27;19924;-69
2023/03/06 09:54:16;;;;;;;;;;;22.10;35.00;;;;;;5073980;28;19965;-75
2023/03/06 09:56:44;;;;;;;;;;;22.10;35.00;;;;;;5088996;28;19927;-76
2023/03/06 09:59:13;;;;;;;;;;;22.00;35.00;;;;;;5072917;28;19924;-75
2023/03/06 10:01:41;;;;;;;;;;;22.10;35.20;;;;;;5071542;28;19963;-78
2023/03/06 10:04:10;;;;;;;;;;;21.90;35.50;;;;;;5070815;28;19920;-70
2023/03/06 10:06:40;;;;;;;;;;;21.80;36.00;;;;;;5071336;28;19934;-75
2023/03/06 10:09:09;;;;;;;;;;;21.70;36.00;;;;;;5093002;27;19931;-71
2023/03/06 10:11:40;;;;;;;;;;;21.70;36.20;;;;;;5098158;27;19928;-68
2023/03/06 10:14:26;;;;;;;;;;;21.70;36.20;;;;;;5067552;28;19952;-69
2023/03/06 10:16:51;;;;;;;;;;;21.80;36.60;;;;;;5068934;28;19932;-77
2023/03/06 10:19:18;;;;;;;;;;;21.80;36.40;;;;;;5063033;28;20398;-76
2023/03/06 10:22:03;;;;;;;;;;;21.80;36.40;;;;;;5065830;28;19928;-71
2023/03/06 10:24:49;;;;;;;;;;;21.80;36.30;;;;;;5072758;28;20259;-74
2023/03/06 10:27:22;;;;;;;;;;;21.90;36.50;;;;;;5079968;28;19955;-75
2023/03/06 10:35:16;;;;;;;;;;;22.00;35.70;;;;;;5100502;27;1875240;-71
2023/03/06 10:37:42;;;;;;;;;;;22.10;35.70;;;;;;5152955;27;20335;-70
2023/03/06 10:40:19;;;;;;;;;;;22.00;35.70;;;;;;5148863;27;19926;-73
2023/03/06 10:42:44;;;;;;;;;;;22.00;35.70;;;;;;5150508;27;19923;-70
2023/03/06 10:45:12;;;;;;;;;;;22.10;35.80;;;;;;5154004;27;19923;-68
2023/03/06 10:47:39;;;;;;;;;;;22.10;36.10;;;;;;5153232;27;19958;-69
2023/03/06 10:50:17;;;;;;;;;;;22.10;36.30;;;;;;5156057;27;20668;-67
2023/03/06 10:52:42;;;;;;;;;;;22.30;36.30;;;;;;5153859;27;19925;-69
2023/03/06 10:55:21;;;;;;;;;;;22.40;36.20;;;;;;5154529;27;19931;-67
2023/03/06 10:57:46;;;;;;;;;;;22.60;35.80;;;;;;5175091;27;20273;-67
2023/03/06 11:00:30;;;;;;;;;;;22.50;35.40;;;;;;5168644;27;19922;-75
2023/03/06 11:03:03;;;;;;;;;;;22.30;35.50;;;;;;5168609;27;20346;-71
2023/03/06 11:05:31;;;;;;;;;;;22.20;35.40;;;;;;5172062;27;20266;-69
2023/03/06 11:07:58;;;;;;;;;;;22.10;35.80;;;;;;5150773;27;20490;-68
2023/03/06 11:10:24;;;;;;;;;;;22.00;35.90;;;;;;5133441;27;19961;-68
2023/03/06 11:12:56;;;;;;;;;;;22.00;35.80;;;;;;5173077;27;19954;-73
2023/03/06 11:15:22;;;;;;;;;;;22.00;35.90;;;;;;5152484;27;19933;-69
2023/03/06 11:26:00;;;;;;;;;;;22.20;35.60;;;;;;5088367;27;19916;-66
2023/03/06 11:28:36;;;;;;;;;;;22.20;34.80;;;;;;5093320;28;20032;-67
2023/03/06 11:31:07;;;;;;;;;;;22.20;34.30;;;;;;5085692;28;20236;-67
2023/03/06 11:33:36;;;;;;;;;;;22.20;34.20;;;;;;5089197;28;20424;-76
2023/03/06 11:36:11;;;;;;;;;;;22.00;34.10;;;;;;5090065;28;19924;-71
2023/03/06 11:38:41;;;;;;;;;;;22.00;34.00;;;;;;5094064;28;19947;-71
2023/03/06 11:41:14;;;;;;;;;;;21.90;33.80;;;;;;5096162;28;19931;-71
2023/03/06 11:43:47;;;;;;;;;;;21.80;33.20;;;;;;5086492;28;20386;-70
2023/03/06 11:46:17;;;;;;;;;;;21.80;33.20;;;;;;5116180;27;20069;-67
2023/03/06 11:48:47;;;;;;;;;;;21.90;33.50;;;;;;5087087;28;20469;-68
2023/03/06 11:51:16;;;;;;;;;;;21.80;33.70;;;;;;5089518;28;19969;-73
2023/03/06 11:53:41;;;;;;;;;;;21.80;33.90;;;;;;5089993;28;20370;-68
2023/03/06 11:56:27;;;;;;;;;;;21.80;33.90;;;;;;5088795;28;19920;-66
2023/03/06 12:04:42;;;;;;;;;;;21.80;34.20;;;;;;5068360;28;19920;-67
2023/03/06 12:07:18;;;;;;;;;;;21.90;34.20;;;;;;5069050;28;21243;-67
2023/03/06 12:09:45;;;;;;;;;;;21.90;34.20;;;;;;5054178;28;19928;-74
2023/03/06 12:12:19;;;;;;;;;;;21.90;34.30;;;;;;5050225;28;19931;-67
2023/03/06 12:15:04;;;;;;;;;;;21.90;34.50;;;;;;5065457;28;20360;-65
2023/03/06 12:22:53;;;;;;;;;;;22.00;33.50;;;;;;5071279;27;1869594;-70
2023/03/06 12:25:36;;;;;;;;;;;22.10;33.60;;;;;;5125889;27;19972;-70
2023/03/06 12:28:21;;;;;;;;;;;22.30;33.30;;;;;;5129525;27;19942;-67
2023/03/06 12:30:56;;;;;;;;;;;22.30;32.80;;;;;;5135279;27;19927;-75
2023/03/06 12:36:22;;;;;;;;;;;22.60;32.80;;;;;;5072853;27;20127;-74
2023/03/06 12:44:26;;;;;;;;;;;22.90;32.10;;;;;;5085010;27;20401;-68
2023/03/06 12:46:55;;;;;;;;;;;23.00;32.00;;;;;;5068846;28;20021;-72
2023/03/06 12:49:24;;;;;;;;;;;22.90;31.90;;;;;;5081862;28;19924;-74
2023/03/06 12:51:50;;;;;;;;;;;22.90;32.10;;;;;;5054566;28;20182;-71
2023/03/06 12:54:18;;;;;;;;;;;22.90;32.10;;;;;;5066935;28;20082;-74
2023/03/06 12:56:44;;;;;;;;;;;22.90;32.30;;;;;;5060786;28;20364;-69
2023/03/06 12:59:29;;;;;;;;;;;22.90;32.30;;;;;;5063117;28;19928;-72
2023/03/06 13:07:35;;;;;;;;;;;22.80;32.50;;;;;;5137805;27;19923;-69
2023/03/06 13:10:22;;;;;;;;;;;22.70;32.70;;;;;;5095401;27;19970;-70
2023/03/06 13:15:40;;;;;;;;;;;22.60;32.90;;;;;;5068843;27;19921;-68
2023/03/06 13:18:26;;;;;;;;;;;22.50;32.90;;;;;;5050301;28;20007;-70
2023/03/06 13:20:52;;;;;;;;;;;22.50;33.00;;;;;;5041208;28;20290;-69
2023/03/06 13:26:09;;;;;;;;;;;22.40;33.30;;;;;;5087682;27;20313;-69
2023/03/06 13:45:24;;;;;;;;;;;22.10;33.60;;;;;;5061509;28;20297;-72
2023/03/06 13:47:54;;;;;;;;;;;22.10;33.60;;;;;;5065047;28;19928;-70
2023/03/06 13:53:18;;;;;;;;;;;22.10;33.70;;;;;;5091638;27;19931;-69
2023/03/06 13:56:05;;;;;;;;;;;22.10;33.70;;;;;;5106911;28;19920;-68
2023/03/06 13:58:53;;;;;;;;;;;22.10;33.70;;;;;;5094729;28;19920;-68
2023/03/06 14:04:10;;;;;;;;;;;22.00;33.70;;;;;;5070242;28;19923;-72
2023/03/06 14:12:12;;;;;;;;;;;22.00;32.60;;;;;;5113537;27;19924;-72
2023/03/06 14:14:43;;;;;;;;;;;21.90;32.60;;;;;;5112516;28;19935;-72
2023/03/06 14:17:28;;;;;;;;;;;21.90;32.30;;;;;;5118155;28;19924;-73
2023/03/06 14:19:57;;;;;;;;;;;21.80;32.20;;;;;;5111352;28;19926;-68
2023/03/06 14:22:23;;;;;;;;;;;21.90;31.70;;;;;;5114536;28;19923;-71
2023/03/06 14:24:52;;;;;;;;;;;22.00;32.00;;;;;;5113132;28;19964;-70
2023/03/06 14:27:18;;;;;;;;;;;22.10;32.10;;;;;;5108501;28;19927;-70
2023/03/06 14:29:47;;;;;;;;;;;22.20;32.10;;;;;;5114392;27;20355;-69
2023/03/06 14:32:15;;;;;;;;;;;22.50;32.90;;;;;;5117893;27;20014;-69
2023/03/06 14:34:44;;;;;;;;;;;22.30;32.00;;;;;;5114824;27;19927;-69
2023/03/06 14:37:25;;;;;;;;;;;22.30;32.00;;;;;;5113671;27;19927;-70
2023/03/06 14:39:51;;;;;;;;;;;22.40;31.90;;;;;;5111496;28;20287;-69
2023/03/06 14:42:31;;;;;;;;;;;22.50;31.90;;;;;;5114865;28;19939;-68
2023/03/06 14:47:49;;;;;;;;;;;22.60;31.10;;;;;;5096407;27;19945;-72
2023/03/06 14:50:34;;;;;;;;;;;22.60;30.90;;;;;;5071639;28;20268;-68
2023/03/06 14:55:44;;;;;;;;;;;22.70;30.50;;;;;;5091000;27;19953;-69
2023/03/06 14:58:13;;;;;;;;;;;22.80;30.70;;;;;;5078764;28;20351;-68
2023/03/06 15:00:40;;;;;;;;;;;22.60;30.80;;;;;;5110195;28;19920;-68
2023/03/06 15:03:11;;;;;;;;;;;22.60;31.10;;;;;;5074339;28;19932;-69
2023/03/06 15:05:37;;;;;;;;;;;22.50;31.00;;;;;;5076417;28;19928;-68
2023/03/06 15:08:05;;;;;;;;;;;22.60;31.10;;;;;;5078765;28;19974;-69
2023/03/06 15:10:33;;;;;;;;;;;22.50;31.20;;;;;;5077299;28;19950;-68
2023/03/06 15:13:06;;;;;;;;;;;22.50;31.30;;;;;;5079407;28;19925;-68
2023/03/06 15:15:32;;;;;;;;;;;22.40;31.30;;;;;;5079292;28;19982;-68
2023/03/06 15:17:57;;;;;;;;;;;22.30;31.40;;;;;;5077075;28;20315;-69
2023/03/06 15:20:43;;;;;;;;;;;22.20;31.40;;;;;;5077127;28;19928;-69
2023/03/06 15:23:14;;;;;;;;;;;22.10;31.50;;;;;;5112398;28;19921;-68
2023/03/06 15:25:39;;;;;;;;;;;22.00;31.60;;;;;;5110634;28;19929;-69
2023/03/06 15:28:25;;;;;;;;;;;22.00;31.80;;;;;;5078877;28;20491;-68
2023/03/06 15:31:17;;;;;;;;;;;21.90;31.90;;;;;;5080507;28;19925;-69
2023/03/06 15:33:42;;;;;;;;;;;21.80;31.90;;;;;;5082502;28;19932;-68
2023/03/06 15:36:28;;;;;;;;;;;21.70;32.00;;;;;;5080118;28;19935;-68
2023/03/06 15:38:55;;;;;;;;;;;21.60;32.10;;;;;;5079570;28;20371;-69
2023/03/06 15:41:25;;;;;;;;;;;21.60;32.20;;;;;;5078984;28;19989;-69
2023/03/06 15:43:51;;;;;;;;;;;21.50;32.30;;;;;;5079219;28;19978;-68